Time;durP1;ratioP1;P1;durP2;ratioP2;P2;SDS_P1;SDS_P2;PMS_P1;PMS_P2;Temp;Humidity;BMP_temperature;BMP_pressure;BME280_temperature;BME280_humidity;BME280_pressure;Samples;Min_cycle;Max_cycle;Signal;HPM_P1;HPM_P2
2023/12/23 00:00:04;;;;;;;6.43;1.55;;;;;;;-146.82;100.00;71671.09;5055327;28;20472;-79
2023/12/23 00:02:35;;;;;;;2.22;1.10;;;;;;;-146.82;100.00;71671.09;5055083;28;20040;-80
2023/12/23 00:05:03;;;;;;;4.32;0.88;;;;;;;-146.82;100.00;71671.09;5055679;28;20021;-79
2023/12/23 00:07:29;;;;;;;3.63;1.50;;;;;;;-146.82;100.00;71671.09;5054315;28;20094;-80
2023/12/23 00:09:55;;;;;;;6.75;2.05;;;;;;;-146.82;100.00;71671.09;5055401;28;20025;-80
2023/12/23 00:12:23;;;;;;;4.53;1.40;;;;;;;-146.82;100.00;71671.09;5039630;28;20044;-81
2023/12/23 00:14:51;;;;;;;6.55;1.48;;;;;;;-146.82;100.00;71671.09;5059398;28;20088;-80
2023/12/23 00:17:31;;;;;;;2.72;1.42;;;;;;;-146.82;100.00;71671.09;5057375;28;20056;-79
2023/12/23 00:19:56;;;;;;;7.43;1.70;;;;;;;-146.82;100.00;71671.09;5056485;28;20024;-80
2023/12/23 00:22:22;;;;;;;9.98;1.75;;;;;;;-146.82;100.00;71671.09;5056256;28;20029;-80
2023/12/23 00:24:49;;;;;;;3.88;1.25;;;;;;;-146.82;100.00;71671.09;5057623;28;20036;-80
2023/12/23 00:27:15;;;;;;;3.47;1.30;;;;;;;-146.82;100.00;71671.09;5054025;28;20052;-79
2023/12/23 00:29:55;;;;;;;5.68;1.30;;;;;;;-146.82;100.00;71671.09;5055484;28;20039;-81
2023/12/23 00:32:21;;;;;;;3.13;1.00;;;;;;;-146.82;100.00;71671.09;5055101;28;20056;-81
2023/12/23 00:34:48;;;;;;;4.13;1.15;;;;;;;-146.82;100.00;71671.09;5052486;28;20358;-81
2023/12/23 00:37:13;;;;;;;4.30;1.70;;;;;;;-146.82;100.00;71671.09;5054769;28;20033;-81
2023/12/23 00:39:40;;;;;;;5.20;1.05;;;;;;;-146.82;100.00;71671.09;5054691;28;20029;-79
2023/12/23 00:42:06;;;;;;;3.50;1.50;;;;;;;-146.82;100.00;71671.09;5054667;28;20386;-80
2023/12/23 00:44:32;;;;;;;3.83;0.77;;;;;;;-146.82;100.00;71671.09;5053049;28;20454;-82
2023/12/23 00:46:58;;;;;;;4.32;0.90;;;;;;;-146.82;100.00;71671.09;5052282;28;20048;-81
2023/12/23 00:49:23;;;;;;;1.50;1.40;;;;;;;-146.82;100.00;71671.09;5053318;28;20543;-80
2023/12/23 00:51:49;;;;;;;4.28;1.30;;;;;;;-146.82;100.00;71671.09;5053433;28;20033;-81
2023/12/23 00:54:17;;;;;;;2.15;0.85;;;;;;;-146.82;100.00;71671.09;5052185;28;20055;-80
2023/12/23 00:56:47;;;;;;;1.33;0.63;;;;;;;-146.82;100.00;71671.09;5052995;28;20028;-82
2023/12/23 00:59:12;;;;;;;1.65;0.75;;;;;;;-146.82;100.00;71671.09;5053021;28;20029;-81
2023/12/23 01:01:37;;;;;;;2.35;1.40;;;;;;;-146.82;100.00;71671.09;5051889;28;20028;-80
2023/12/23 01:04:09;;;;;;;1.30;0.60;;;;;;;-146.82;100.00;71671.09;5052883;28;20100;-81
2023/12/23 01:06:34;;;;;;;3.67;0.88;;;;;;;-146.82;100.00;71671.09;5052882;28;20465;-79
2023/12/23 01:09:01;;;;;;;1.83;0.60;;;;;;;-146.82;100.00;71671.09;5035058;28;20035;-78
2023/12/23 01:11:28;;;;;;;1.30;0.60;;;;;;;-146.82;100.00;71671.09;5052637;28;20547;-81
2023/12/23 01:13:55;;;;;;;1.77;0.55;;;;;;;-146.82;100.00;71671.09;5051579;28;20389;-80
2023/12/23 01:16:20;;;;;;;2.42;0.90;;;;;;;-146.82;100.00;71671.09;5053192;28;20029;-80
2023/12/23 01:18:47;;;;;;;1.33;0.80;;;;;;;-146.82;100.00;71671.09;5053770;28;20083;-80
2023/12/23 01:21:13;;;;;;;0.80;0.60;;;;;;;-146.82;100.00;71671.09;5054072;28;20021;-78
2023/12/23 01:23:40;;;;;;;1.08;0.50;;;;;;;-146.82;100.00;71671.09;5051834;28;20044;-82
2023/12/23 01:26:05;;;;;;;0.70;0.50;;;;;;;-146.82;100.00;71671.09;5052786;28;20065;-81
2023/12/23 01:28:30;;;;;;;2.53;0.85;;;;;;;-146.82;100.00;71671.09;5053606;28;20093;-81
2023/12/23 01:30:56;;;;;;;0.57;0.43;;;;;;;-146.82;100.00;71671.09;5053491;28;20090;-81
2023/12/23 01:33:22;;;;;;;0.63;0.50;;;;;;;-146.82;100.00;71671.09;5053799;28;20062;-82
2023/12/23 01:35:48;;;;;;;1.85;0.40;;;;;;;-146.82;100.00;71671.09;5052954;28;20033;-80
2023/12/23 01:38:16;;;;;;;1.05;0.70;;;;;;;-146.82;100.00;71671.09;5053692;28;20025;-82
2023/12/23 01:40:43;;;;;;;0.63;0.35;;;;;;;-146.82;100.00;71671.09;5053550;28;20028;-80
2023/12/23 01:43:10;;;;;;;0.60;0.30;;;;;;;-146.82;100.00;71671.09;5052346;28;20047;-81
2023/12/23 01:45:39;;;;;;;0.40;0.40;;;;;;;-146.82;100.00;71671.09;5053185;28;20045;-81
2023/12/23 01:48:06;;;;;;;2.13;0.55;;;;;;;-146.82;100.00;71671.09;5052129;28;20394;-80
2023/12/23 01:50:33;;;;;;;3.00;0.82;;;;;;;-146.82;100.00;71671.09;5052781;28;20028;-80
2023/12/23 01:53:00;;;;;;;1.15;0.30;;;;;;;-146.82;100.00;71671.09;5051291;28;20021;-82
2023/12/23 01:55:30;;;;;;;5.35;0.50;;;;;;;-146.82;100.00;71671.09;5052228;28;20127;-80
2023/12/23 01:57:57;;;;;;;3.50;0.75;;;;;;;-146.82;100.00;71671.09;5053575;28;20023;-81
2023/12/23 02:00:22;;;;;;;0.98;0.70;;;;;;;-146.82;100.00;71671.09;5053390;28;20113;-81
2023/12/23 02:02:50;;;;;;;0.75;0.57;;;;;;;-146.82;100.00;71671.09;5035204;28;20053;-80
2023/12/23 02:05:18;;;;;;;2.13;0.57;;;;;;;-146.82;100.00;71671.09;5052297;28;20048;-80
2023/12/23 02:07:45;;;;;;;8.93;0.82;;;;;;;-146.82;100.00;71671.09;5053196;28;20020;-80
2023/12/23 02:10:15;;;;;;;0.52;0.40;;;;;;;-146.82;100.00;71671.09;5035454;28;20033;-80
2023/12/23 02:12:56;;;;;;;2.97;0.50;;;;;;;-146.82;100.00;71671.09;5053069;28;20033;-79
2023/12/23 02:15:36;;;;;;;3.85;0.40;;;;;;;-146.82;100.00;71671.09;5052410;28;20017;-81
2023/12/23 02:18:02;;;;;;;0.82;0.30;;;;;;;-146.82;100.00;71671.09;5053559;28;20025;-79
2023/12/23 02:20:29;;;;;;;1.00;0.70;;;;;;;-146.82;100.00;71671.09;5051331;28;20076;-81
2023/12/23 02:22:58;;;;;;;1.67;0.60;;;;;;;-146.82;100.00;71671.09;5052690;28;20053;-79
2023/12/23 02:25:25;;;;;;;1.92;0.80;;;;;;;-146.82;100.00;71671.09;5053454;28;20455;-80
2023/12/23 02:27:57;;;;;;;1.23;0.65;;;;;;;-146.82;100.00;71671.09;5053131;28;20057;-80
2023/12/23 02:30:25;;;;;;;0.60;0.50;;;;;;;-146.82;100.00;71671.09;5052349;28;20372;-80
2023/12/23 02:32:51;;;;;;;1.25;0.40;;;;;;;-146.82;100.00;71671.09;5051932;28;20035;-81
2023/12/23 02:35:17;;;;;;;1.10;0.52;;;;;;;-146.82;100.00;71671.09;5051854;28;20025;-80
2023/12/23 02:37:45;;;;;;;0.47;0.30;;;;;;;-146.82;100.00;71671.09;5035118;28;20029;-80
2023/12/23 02:40:10;;;;;;;2.67;0.60;;;;;;;-146.82;100.00;71671.09;5051417;28;20041;-80
2023/12/23 02:42:39;;;;;;;0.30;0.30;;;;;;;-146.82;100.00;71671.09;5050662;28;20044;-80
2023/12/23 02:45:05;;;;;;;2.13;0.70;;;;;;;-146.82;100.00;71671.09;5051442;28;20021;-81
2023/12/23 02:47:31;;;;;;;1.08;0.40;;;;;;;-146.82;100.00;71671.09;5051794;28;20025;-81
2023/12/23 02:50:11;;;;;;;1.42;0.60;;;;;;;-146.82;100.00;71671.09;5050135;28;20029;-80
2023/12/23 02:52:40;;;;;;;0.45;0.40;;;;;;;-146.82;100.00;71671.09;5050858;28;20040;-80
2023/12/23 02:55:11;;;;;;;2.15;0.40;;;;;;;-146.82;100.00;71671.09;5050717;28;20147;-81
2023/12/23 02:57:37;;;;;;;1.33;0.70;;;;;;;-146.82;100.00;71671.09;5053814;28;20048;-83
2023/12/23 03:00:06;;;;;;;1.17;0.40;;;;;;;-146.82;100.00;71671.09;5038046;28;20539;-81
2023/12/23 03:02:35;;;;;;;0.40;0.40;;;;;;;-146.82;100.00;71671.09;5055217;28;20021;-80
2023/12/23 03:05:02;;;;;;;0.40;0.40;;;;;;;-146.82;100.00;71671.09;5055343;28;20040;-80
2023/12/23 03:07:29;;;;;;;3.10;0.80;;;;;;;-146.82;100.00;71671.09;5053754;28;20021;-79
2023/12/23 03:10:05;;;;;;;3.70;0.60;;;;;;;-146.82;100.00;71671.09;5055046;28;20461;-80
2023/12/23 03:12:31;;;;;;;0.52;0.47;;;;;;;-146.82;100.00;71671.09;5053470;28;20032;-80
2023/12/23 03:14:57;;;;;;;0.85;0.57;;;;;;;-146.82;100.00;71671.09;5053840;28;20484;-81
2023/12/23 03:17:25;;;;;;;0.90;0.60;;;;;;;-146.82;100.00;71671.09;5038422;28;20086;-80
2023/12/23 03:19:54;;;;;;;0.68;0.32;;;;;;;-146.82;100.00;71671.09;5057402;28;20094;-81
2023/12/23 03:22:22;;;;;;;3.85;0.70;;;;;;;-146.82;100.00;71671.09;5057254;28;20032;-81
2023/12/23 03:24:50;;;;;;;0.40;0.40;;;;;;;-146.82;100.00;71671.09;5057173;28;20374;-79
2023/12/23 03:27:18;;;;;;;0.80;0.52;;;;;;;-146.82;100.00;71671.09;5057011;28;20029;-82
2023/12/23 03:29:58;;;;;;;1.45;0.45;;;;;;;-146.82;100.00;71671.09;5055081;28;20120;-84
2023/12/23 03:32:26;;;;;;;0.50;0.50;;;;;;;-146.82;100.00;71671.09;5037878;28;20382;-82
2023/12/23 03:34:51;;;;;;;1.20;0.50;;;;;;;-146.82;100.00;71671.09;5055381;28;20063;-81
2023/12/23 03:37:21;;;;;;;0.50;0.50;;;;;;;-146.82;100.00;71671.09;5054967;28;20474;-82
2023/12/23 03:39:48;;;;;;;2.92;0.70;;;;;;;-146.82;100.00;71671.09;5055136;28;20035;-82
2023/12/23 03:42:13;;;;;;;0.70;0.60;;;;;;;-146.82;100.00;71671.09;5056046;28;20024;-83
2023/12/23 03:44:40;;;;;;;1.83;0.47;;;;;;;-146.82;100.00;71671.09;5055887;28;20494;-80
2023/12/23 03:47:07;;;;;;;0.20;0.20;;;;;;;-146.82;100.00;71671.09;5055585;28;20057;-80
2023/12/23 03:49:34;;;;;;;1.75;0.38;;;;;;;-146.82;100.00;71671.09;5055870;28;20393;-81
2023/12/23 03:52:02;;;;;;;1.45;0.40;;;;;;;-146.82;100.00;71671.09;5037691;28;20048;-81
2023/12/23 03:54:29;;;;;;;0.85;0.47;;;;;;;-146.82;100.00;71671.09;5055706;28;20116;-80
2023/12/23 03:56:55;;;;;;;0.95;0.50;;;;;;;-146.82;100.00;71671.09;5055640;28;20035;-80
2023/12/23 03:59:28;;;;;;;2.22;0.40;;;;;;;-146.82;100.00;71671.09;5054038;28;20024;-81
2023/12/23 04:01:53;;;;;;;0.60;0.60;;;;;;;-146.82;100.00;71671.09;5055639;28;20033;-81
2023/12/23 04:04:20;;;;;;;2.85;0.50;;;;;;;-146.82;100.00;71671.09;5053906;28;20024;-81
2023/12/23 04:06:46;;;;;;;0.98;0.43;;;;;;;-146.82;100.00;71671.09;5054215;28;20036;-82
2023/12/23 04:09:26;;;;;;;1.55;0.60;;;;;;;-146.82;100.00;71671.09;5054071;28;20033;-80
2023/12/23 04:11:53;;;;;;;0.30;0.30;;;;;;;-146.82;100.00;71671.09;5055269;28;20033;-83
2023/12/23 04:14:20;;;;;;;0.93;0.40;;;;;;;-146.82;100.00;71671.09;5055121;28;20070;-81
2023/12/23 04:16:48;;;;;;;0.45;0.30;;;;;;;-146.82;100.00;71671.09;5055193;28;20538;-82
2023/12/23 04:19:14;;;;;;;2.13;0.50;;;;;;;-146.82;100.00;71671.09;5054165;28;20028;-82
2023/12/23 04:21:42;;;;;;;0.38;0.32;;;;;;;-146.82;100.00;71671.09;5056303;28;20021;-81
2023/12/23 04:24:08;;;;;;;0.30;0.30;;;;;;;-146.82;100.00;71671.09;5054138;28;20346;-82
2023/12/23 04:26:34;;;;;;;0.82;0.40;;;;;;;-146.82;100.00;71671.09;5053748;28;20470;-81
2023/12/23 04:29:02;;;;;;;1.38;0.40;;;;;;;-146.82;100.00;71671.09;5054888;28;20139;-82
2023/12/23 04:31:30;;;;;;;1.42;0.30;;;;;;;-146.82;100.00;71671.09;5053325;28;20029;-79
2023/12/23 04:33:57;;;;;;;1.90;0.45;;;;;;;-146.82;100.00;71671.09;5054924;28;20043;-81
2023/12/23 04:36:24;;;;;;;0.50;0.40;;;;;;;-146.82;100.00;71671.09;5054846;28;20032;-81
2023/12/23 04:38:50;;;;;;;0.70;0.35;;;;;;;-146.82;100.00;71671.09;5054704;28;20135;-82
2023/12/23 04:41:16;;;;;;;1.60;0.70;;;;;;;-146.82;100.00;71671.09;5053312;28;20107;-82
2023/12/23 04:43:44;;;;;;;1.33;0.57;;;;;;;-146.82;100.00;71671.09;5054462;28;20041;-81
2023/12/23 04:46:10;;;;;;;1.52;0.65;;;;;;;-146.82;100.00;71671.09;5055269;28;20021;-82
2023/12/23 04:48:44;;;;;;;2.22;1.15;;;;;;;-146.82;100.00;71671.09;5055435;28;20036;-81
2023/12/23 04:51:09;;;;;;;2.55;0.98;;;;;;;-146.82;100.00;71671.09;5054425;28;20068;-81
2023/12/23 04:53:35;;;;;;;5.75;1.00;;;;;;;-146.82;100.00;71671.09;5055635;28;20549;-81
2023/12/23 04:56:01;;;;;;;0.77;0.60;;;;;;;-146.82;100.00;71671.09;5053660;28;20029;-81
2023/12/23 04:58:29;;;;;;;1.85;0.60;;;;;;;-146.82;100.00;71671.09;5054799;28;20099;-81
2023/12/23 05:00:56;;;;;;;2.38;0.50;;;;;;;-146.82;100.00;71671.09;5056233;28;20138;-81
2023/12/23 05:03:24;;;;;;;0.55;0.30;;;;;;;-146.82;100.00;71671.09;5055391;28;20041;-83
2023/12/23 05:05:50;;;;;;;0.52;0.43;;;;;;;-146.82;100.00;71671.09;5055062;28;20082;-82
2023/12/23 05:08:17;;;;;;;1.00;0.57;;;;;;;-146.82;100.00;71671.09;5054870;28;20103;-81
2023/12/23 05:10:46;;;;;;;0.57;0.50;;;;;;;-146.82;100.00;71671.09;5052808;28;20488;-80
2023/12/23 05:13:14;;;;;;;1.40;0.47;;;;;;;-146.82;100.00;71671.09;5054022;28;20026;-81
2023/12/23 05:15:40;;;;;;;0.40;0.30;;;;;;;-146.82;100.00;71671.09;5053087;28;20135;-82
2023/12/23 05:18:21;;;;;;;0.30;0.30;;;;;;;-146.82;100.00;71671.09;5055435;28;20557;-80
2023/12/23 05:21:07;;;;;;;1.98;0.40;;;;;;;-146.82;100.00;71671.09;5055490;28;20025;-81
2023/12/23 05:23:41;;;;;;;1.98;0.50;;;;;;;-146.82;100.00;71671.09;5055978;28;20088;-81
2023/12/23 05:26:08;;;;;;;0.65;0.45;;;;;;;-146.82;100.00;71671.09;5052660;28;20029;-80
2023/12/23 05:28:34;;;;;;;0.60;0.60;;;;;;;-146.82;100.00;71671.09;5052644;28;20056;-80
2023/12/23 05:31:00;;;;;;;0.30;0.30;;;;;;;-146.82;100.00;71671.09;5052568;28;20114;-80
2023/12/23 05:33:26;;;;;;;1.50;0.60;;;;;;;-146.82;100.00;71671.09;5033256;28;20036;-81
2023/12/23 05:35:52;;;;;;;1.35;0.55;;;;;;;-146.82;100.00;71671.09;5053788;28;20392;-80
2023/12/23 05:38:19;;;;;;;2.20;0.60;;;;;;;-146.82;100.00;71671.09;5053967;28;20474;-80
2023/12/23 05:40:46;;;;;;;1.13;0.70;;;;;;;-146.82;100.00;71671.09;5035678;28;20124;-80
2023/12/23 05:43:11;;;;;;;1.55;0.65;;;;;;;-146.82;100.00;71671.09;5053410;28;20363;-80
2023/12/23 05:45:37;;;;;;;1.05;0.45;;;;;;;-146.82;100.00;71671.09;5053316;28;20107;-81
2023/12/23 05:48:05;;;;;;;0.75;0.43;;;;;;;-146.82;100.00;71671.09;5053144;28;20434;-80
2023/12/23 05:50:31;;;;;;;3.10;0.85;;;;;;;-146.82;100.00;71671.09;5053276;28;20025;-79
2023/12/23 05:52:57;;;;;;;0.43;0.43;;;;;;;-146.82;100.00;71671.09;5051639;28;20455;-79
2023/12/23 05:55:25;;;;;;;0.85;0.65;;;;;;;-146.82;100.00;71671.09;5053652;28;20021;-81
2023/12/23 05:57:53;;;;;;;1.05;0.55;;;;;;;-146.82;100.00;71671.09;5053310;28;20025;-81
2023/12/23 06:00:20;;;;;;;1.77;0.40;;;;;;;-146.82;100.00;71671.09;5051860;28;20481;-82
2023/12/23 06:02:47;;;;;;;2.55;0.50;;;;;;;-146.82;100.00;71671.09;5053432;28;20025;-80
2023/12/23 06:05:13;;;;;;;0.75;0.40;;;;;;;-146.82;100.00;71671.09;5053475;28;20032;-81
2023/12/23 06:07:39;;;;;;;1.70;0.57;;;;;;;-146.82;100.00;71671.09;5035259;28;20025;-81
2023/12/23 06:10:06;;;;;;;3.38;0.80;;;;;;;-146.82;100.00;71671.09;5051800;28;20394;-80
2023/12/23 06:12:33;;;;;;;1.67;0.63;;;;;;;-146.82;100.00;71671.09;5035224;28;20036;-79
2023/12/23 06:14:59;;;;;;;3.55;1.08;;;;;;;-146.82;100.00;71671.09;5051821;28;20078;-79
2023/12/23 06:17:26;;;;;;;1.48;0.40;;;;;;;-146.82;100.00;71671.09;5051874;28;20036;-80
2023/12/23 06:19:54;;;;;;;0.93;0.70;;;;;;;-146.82;100.00;71671.09;5053294;28;20398;-80
2023/12/23 06:22:20;;;;;;;1.63;0.90;;;;;;;-146.82;100.00;71671.09;5053225;28;20040;-81
2023/12/23 06:24:46;;;;;;;2.97;0.50;;;;;;;-146.82;100.00;71671.09;5053042;28;20045;-80
2023/12/23 06:27:14;;;;;;;5.32;0.70;;;;;;;-146.82;100.00;71671.09;5052296;28;20024;-81
2023/12/23 06:29:40;;;;;;;1.48;0.73;;;;;;;-146.82;100.00;71671.09;5051455;28;20122;-84
2023/12/23 06:32:06;;;;;;;6.10;0.52;;;;;;;-146.82;100.00;71671.09;5035995;28;20440;-80
2023/12/23 06:34:33;;;;;;;2.25;0.68;;;;;;;-146.82;100.00;71671.09;5039959;28;20025;-81
2023/12/23 06:36:58;;;;;;;4.35;0.70;;;;;;;-146.82;100.00;71671.09;5056353;28;20088;-80
2023/12/23 06:39:24;;;;;;;3.95;0.77;;;;;;;-146.82;100.00;71671.09;5056935;28;20441;-81
2023/12/23 06:41:50;;;;;;;2.58;1.17;;;;;;;-146.82;100.00;71671.09;5056270;28;20029;-80
2023/12/23 06:44:17;;;;;;;8.25;0.60;;;;;;;-146.82;100.00;71671.09;5038519;28;20045;-80
2023/12/23 06:46:42;;;;;;;3.17;1.02;;;;;;;-146.82;100.00;71671.09;5057468;28;20024;-82
2023/12/23 06:49:24;;;;;;;1.45;0.60;;;;;;;-146.82;100.00;71671.09;5058215;28;20040;-81
2023/12/23 06:51:51;;;;;;;3.75;0.70;;;;;;;-146.82;100.00;71671.09;5057708;28;20070;-80
2023/12/23 06:54:16;;;;;;;2.53;1.17;;;;;;;-146.82;100.00;71671.09;5058245;28;20390;-81
2023/12/23 06:56:41;;;;;;;0.52;0.52;;;;;;;-146.82;100.00;71671.09;5056741;28;20024;-85
2023/12/23 06:59:10;;;;;;;7.47;1.35;;;;;;;-146.82;100.00;71671.09;5059901;28;20029;-84
2023/12/23 07:01:37;;;;;;;3.78;0.60;;;;;;;-146.82;100.00;71671.09;5058312;28;20028;-83
2023/12/23 07:04:04;;;;;;;0.90;0.63;;;;;;;-146.82;100.00;71671.09;5059845;28;20029;-83
2023/12/23 07:06:31;;;;;;;1.65;0.90;;;;;;;-146.82;100.00;71671.09;5057063;28;20029;-80
2023/12/23 07:09:00;;;;;;;2.95;1.00;;;;;;;-146.82;100.00;71671.09;5056780;28;20025;-83
2023/12/23 07:11:26;;;;;;;1.48;0.70;;;;;;;-146.82;100.00;71671.09;5055490;28;20112;-80
2023/12/23 07:13:53;;;;;;;2.25;0.68;;;;;;;-146.82;100.00;71671.09;5062303;28;20055;-79
2023/12/23 07:16:20;;;;;;;1.92;0.80;;;;;;;-146.82;100.00;71671.09;5057353;28;20083;-81
2023/12/23 07:18:48;;;;;;;3.47;0.90;;;;;;;-146.82;100.00;71671.09;5055300;28;20120;-79
2023/12/23 07:21:35;;;;;;;1.63;0.95;;;;;;;-146.82;100.00;71671.09;5056398;28;20159;-86
2023/12/23 07:24:00;;;;;;;4.93;1.10;;;;;;;-146.82;100.00;71671.09;5053593;28;20144;-82
2023/12/23 07:26:26;;;;;;;4.03;0.93;;;;;;;-146.82;100.00;71671.09;5056027;28;20534;-81
2023/12/23 07:28:51;;;;;;;6.95;1.45;;;;;;;-146.82;100.00;71671.09;5043347;28;20045;-82
2023/12/23 07:31:17;;;;;;;2.50;1.20;;;;;;;-146.82;100.00;71671.09;5042315;28;20104;-81
2023/12/23 07:33:46;;;;;;;4.05;1.20;;;;;;;-146.82;100.00;71671.09;5043706;28;20092;-82
2023/12/23 07:36:14;;;;;;;3.10;0.90;;;;;;;-146.82;100.00;71671.09;5046575;28;20086;-80
2023/12/23 07:38:40;;;;;;;2.40;0.95;;;;;;;-146.82;100.00;71671.09;5046108;28;20025;-81
2023/12/23 07:41:08;;;;;;;5.93;1.10;;;;;;;-146.82;100.00;71671.09;5038553;28;20033;-81
2023/12/23 07:43:37;;;;;;;5.00;1.83;;;;;;;-146.82;100.00;71671.09;5035805;28;20029;-80
2023/12/23 07:46:02;;;;;;;6.68;1.23;;;;;;;-146.82;100.00;71671.09;5040321;28;20036;-83
2023/12/23 07:48:29;;;;;;;3.72;1.00;;;;;;;-146.82;100.00;71671.09;5040558;28;20025;-81
2023/12/23 07:50:54;;;;;;;2.53;1.00;;;;;;;-146.82;100.00;71671.09;5040664;28;20113;-83
2023/12/23 07:53:20;;;;;;;3.17;1.13;;;;;;;-146.82;100.00;71671.09;5036073;28;20041;-86
2023/12/23 07:55:46;;;;;;;2.83;0.90;;;;;;;-146.82;100.00;71671.09;5051079;28;20060;-85
2023/12/23 07:58:13;;;;;;;7.53;1.20;;;;;;;-146.82;100.00;71671.09;5056685;28;20029;-85
2023/12/23 08:00:39;;;;;;;5.75;1.77;;;;;;;-146.82;100.00;71671.09;5056304;28;20461;-82
2023/12/23 08:03:06;;;;;;;6.30;1.50;;;;;;;-146.82;100.00;71671.09;5056095;28;20116;-80
2023/12/23 08:05:34;;;;;;;5.90;1.77;;;;;;;-146.82;100.00;71671.09;5056121;28;20459;-79
2023/12/23 08:08:00;;;;;;;5.75;1.20;;;;;;;-146.82;100.00;71671.09;5057403;28;20033;-87
2023/12/23 08:10:25;;;;;;;4.78;2.00;;;;;;;-146.82;100.00;71671.09;5056512;28;20405;-84
2023/12/23 08:12:53;;;;;;;6.78;1.13;;;;;;;-146.82;100.00;71671.09;5053980;28;20004;-85
2023/12/23 08:15:21;;;;;;;4.38;1.35;;;;;;;-146.82;100.00;71671.09;5075596;28;20051;-83
2023/12/23 08:17:49;;;;;;;5.88;1.65;;;;;;;-146.82;100.00;71671.09;5081178;28;20214;-86
2023/12/23 08:20:15;;;;;;;7.78;1.77;;;;;;;-146.82;100.00;71671.09;5079736;28;20073;-83
2023/12/23 08:22:42;;;;;;;8.02;1.48;;;;;;;-146.82;100.00;71671.09;5074760;28;20025;-82
2023/12/23 08:25:08;;;;;;;6.07;1.80;;;;;;;-146.82;100.00;71671.09;5078950;28;20036;-84
2023/12/23 08:27:38;;;;;;;6.22;2.03;;;;;;;-146.82;100.00;71671.09;5074071;28;20041;-87
2023/12/23 08:30:07;;;;;;;13.20;2.35;;;;;;;-146.82;100.00;71671.09;5039047;28;20057;-83
2023/12/23 08:32:33;;;;;;;3.47;1.67;;;;;;;-146.82;100.00;71671.09;5056810;28;20037;-87
2023/12/23 08:34:59;;;;;;;2.78;1.83;;;;;;;-146.82;100.00;71671.09;5055909;28;20359;-81
2023/12/23 08:37:26;;;;;;;6.68;1.40;;;;;;;-146.82;100.00;71671.09;5054296;28;20470;-85
2023/12/23 08:39:54;;;;;;;5.50;2.22;;;;;;;-146.82;100.00;71671.09;5054718;28;20071;-82
2023/12/23 08:42:21;;;;;;;5.35;1.85;;;;;;;-146.82;100.00;71671.09;5038466;28;20036;-84
2023/12/23 08:44:48;;;;;;;4.38;1.75;;;;;;;-146.82;100.00;71671.09;5054062;28;20385;-83
2023/12/23 08:47:15;;;;;;;9.32;1.50;;;;;;;-146.82;100.00;71671.09;5055099;28;20036;-88
2023/12/23 08:49:42;;;;;;;9.30;1.48;;;;;;;-146.82;100.00;71671.09;5055792;28;20033;-81
2023/12/23 08:52:10;;;;;;;9.93;1.80;;;;;;;-146.82;100.00;71671.09;5057005;28;20027;-86
2023/12/23 08:54:35;;;;;;;2.60;1.42;;;;;;;-146.82;100.00;71671.09;5071014;28;20051;-84
2023/12/23 08:57:01;;;;;;;4.90;1.65;;;;;;;-146.82;100.00;71671.09;5067969;28;20020;-83
2023/12/23 08:59:26;;;;;;;8.82;2.28;;;;;;;-146.82;100.00;71671.09;5071911;28;20112;-82
2023/12/23 09:01:53;;;;;;;6.60;1.63;;;;;;;-146.82;100.00;71671.09;5071081;28;20029;-81
2023/12/23 09:04:19;;;;;;;10.07;1.90;;;;;;;-146.82;100.00;71671.09;5071815;28;20041;-85
2023/12/23 09:06:46;;;;;;;8.57;2.00;;;;;;;-146.82;100.00;71671.09;5061441;28;20021;-84
2023/12/23 09:09:12;;;;;;;8.40;2.40;;;;;;;-146.82;100.00;71671.09;5053422;28;20045;-87
2023/12/23 09:11:43;;;;;;;6.45;1.80;;;;;;;-146.82;100.00;71671.09;5054379;28;20099;-84
2023/12/23 09:14:11;;;;;;;9.32;1.40;;;;;;;-146.82;100.00;71671.09;5056238;28;20017;-82
2023/12/23 09:16:40;;;;;;;7.07;1.70;;;;;;;-146.82;100.00;71671.09;5038224;28;20082;-83
2023/12/23 09:19:07;;;;;;;10.80;2.08;;;;;;;-146.82;100.00;71671.09;5036589;28;20056;-81
2023/12/23 09:21:35;;;;;;;11.32;1.90;;;;;;;-146.82;100.00;71671.09;5055090;28;20025;-82
2023/12/23 09:24:30;;;;;;;14.27;2.33;;;;;;;-146.82;100.00;71671.09;5047248;28;20088;-81
2023/12/23 09:27:17;;;;;;;9.75;1.98;;;;;;;-146.82;100.00;71671.09;5054771;28;20121;-83
2023/12/23 09:29:42;;;;;;;11.45;2.15;;;;;;;-146.82;100.00;71671.09;5055099;28;20071;-85
2023/12/23 09:32:08;;;;;;;6.20;2.17;;;;;;;-146.82;100.00;71671.09;5063005;28;20041;-82
2023/12/23 09:34:33;;;;;;;7.68;1.95;;;;;;;-146.82;100.00;71671.09;5046675;28;20083;-92
2023/12/23 09:37:02;;;;;;;7.40;1.98;;;;;;;-146.82;100.00;71671.09;5065105;28;20036;-92
2023/12/23 09:39:28;;;;;;;6.82;1.70;;;;;;;-146.82;100.00;71671.09;5068522;28;20158;-89
2023/12/23 09:41:55;;;;;;;7.85;1.65;;;;;;;-146.82;100.00;71671.09;5073355;28;20485;-92
2023/12/23 09:44:25;;;;;;;6.25;2.10;;;;;;;-146.82;100.00;71671.09;5057702;28;20044;-89
2023/12/23 09:46:50;;;;;;;6.28;2.45;;;;;;;-146.82;100.00;71671.09;5073153;28;20044;-85
2023/12/23 09:49:16;;;;;;;4.47;2.45;;;;;;;-146.82;100.00;71671.09;5055291;28;20492;-79
2023/12/23 09:51:43;;;;;;;7.20;2.42;;;;;;;-146.82;100.00;71671.09;5072606;28;20048;-84
2023/12/23 09:54:16;;;;;;;3.72;1.40;;;;;;;-146.82;100.00;71671.09;5073658;28;20373;-81
2023/12/23 09:56:42;;;;;;;8.43;2.28;;;;;;;-146.82;100.00;71671.09;5056059;28;20041;-80
2023/12/23 09:59:10;;;;;;;8.63;2.05;;;;;;;-146.82;100.00;71671.09;5073473;28;20040;-84
2023/12/23 10:01:36;;;;;;;2.55;1.30;;;;;;;-146.82;100.00;71671.09;5073929;28;20051;-83
2023/12/23 10:04:01;;;;;;;12.07;1.80;;;;;;;-146.82;100.00;71671.09;5072377;28;20033;-85
2023/12/23 10:06:28;;;;;;;2.42;1.63;;;;;;;-146.82;100.00;71671.09;5073530;28;20044;-85
2023/12/23 10:08:53;;;;;;;8.82;1.70;;;;;;;-146.82;100.00;71671.09;5057174;28;20120;-85
2023/12/23 10:11:19;;;;;;;4.38;1.95;;;;;;;-146.82;100.00;71671.09;5014818;28;20128;-84
2023/12/23 10:13:46;;;;;;;9.95;2.05;;;;;;;-146.82;100.00;71671.09;5034247;28;20033;-85
2023/12/23 10:16:14;;;;;;;6.00;1.55;;;;;;;-146.82;100.00;71671.09;5031029;28;20044;-88
2023/12/23 10:18:50;;;;;;;3.95;1.40;;;;;;;-146.82;100.00;71671.09;5031876;28;20048;-83
2023/12/23 10:21:17;;;;;;;6.95;1.40;;;;;;;-146.82;100.00;71671.09;5035420;28;20041;-86
2023/12/23 10:23:45;;;;;;;8.52;1.70;;;;;;;-146.82;100.00;71671.09;5033391;28;20045;-89
2023/12/23 10:26:12;;;;;;;4.72;2.30;;;;;;;-146.82;100.00;71671.09;5034771;28;20029;-88
2023/12/23 10:28:42;;;;;;;4.13;1.65;;;;;;;-146.82;100.00;71671.09;5034932;28;20025;-93
2023/12/23 10:31:11;;;;;;;5.85;1.58;;;;;;;-146.82;100.00;71671.09;5036340;28;20026;-87
2023/12/23 10:33:42;;;;;;;3.13;1.60;;;;;;;-146.82;100.00;71671.09;5016354;28;20033;-86
2023/12/23 10:36:13;;;;;;;3.88;2.17;;;;;;;-146.82;100.00;71671.09;5031954;28;20033;-83
2023/12/23 10:38:45;;;;;;;2.67;1.27;;;;;;;-146.82;100.00;71671.09;5033966;28;20026;-89
2023/12/23 10:41:36;;;;;;;3.83;1.40;;;;;;;-146.82;100.00;71671.09;5003839;28;20034;-93
2023/12/23 10:44:03;;;;;;;2.97;1.07;;;;;;;-146.82;100.00;71671.09;5023245;28;20033;-91
2023/12/23 10:46:44;;;;;;;1.88;1.02;;;;;;;-146.82;100.00;71671.09;5020838;28;20025;-91
2023/12/23 10:49:30;;;;;;;0.85;0.82;;;;;;;-146.82;100.00;71671.09;5037480;28;20379;-92
2023/12/23 10:51:57;;;;;;;5.55;0.98;;;;;;;-146.82;100.00;71671.09;5021149;28;20497;-89
2023/12/23 10:54:25;;;;;;;1.88;0.73;;;;;;;-146.82;100.00;71671.09;5021272;28;20045;-90
2023/12/23 10:56:53;;;;;;;3.25;1.42;;;;;;;-146.82;100.00;71671.09;5042023;28;20075;-90
2023/12/23 10:59:19;;;;;;;1.30;0.93;;;;;;;-146.82;100.00;71671.09;5035847;28;20037;-88
2023/12/23 11:01:47;;;;;;;3.20;1.38;;;;;;;-146.82;100.00;71671.09;5037148;28;20495;-86
2023/12/23 11:04:14;;;;;;;2.67;1.45;;;;;;;-146.82;100.00;71671.09;5035932;28;20083;-84
2023/12/23 11:06:43;;;;;;;1.27;0.65;;;;;;;-146.82;100.00;71671.09;5016328;28;20040;-82
2023/12/23 11:09:10;;;;;;;1.52;1.00;;;;;;;-146.82;100.00;71671.09;5016310;28;20121;-82
2023/12/23 11:11:36;;;;;;;2.35;0.90;;;;;;;-146.82;100.00;71671.09;5033398;28;20428;-80